Engelhard, North Carolina
Current Conditions -  °F | °C
As of 10:51 AM on Thursday 18 Dec 2014 (Local Time) from KHSE Reporting Station
Clear Clear  
Wind Chill: 44°   Ceiling: Unl
Heat Index: 47°   Visibility: 10mi
Dew Point: 36°   Wind: 7mph
Humidity: 66%   Direction: NA
Pressure: 30.16"   Gusts: NA
Location:  35.51°N, 76°W
Report Text: KHSE 181551Z AUTO VRB06KT 10SM CLR 08/02 A3016 RMK AO2 SLP213 T00830022 TSNO
Loading
Personal Weather Stations






























Interactive Weather Map New forecast layout! Learn more

10-Day Weather Forecast

Advertisements
Track Severe Weather on mobile